Date,TemperatureHighF,TemperatureAvgF,TemperatureLowF,DewpointHighF,DewpointAvgF,DewpointLowF,HumidityHigh,HumidityAvg,HumidityLow,PressureMaxIn,PressureMinIn,WindSpeedMaxMPH,WindSpeedAvgMPH,GustSpeedMaxMPH,PrecipitationSumIn
2013-1-1,65,55,49,49,44,38,79,66,54,30.19,30.08,22,10,29,0.00
2013-1-2,62,55,50,44,37,35,63,52,42,30.29,30.15,15,6,29,0.00
2013-1-3,58,52,45,45,39,35,81,63,51,30.62,30.28,14,4,26,0.00
2013-1-4,60,49,42,48,43,39,91,81,57,30.66,30.57,9,2,16,0.01
2013-1-5,63,52,41,49,42,31,92,73,32,30.59,30.40,21,3,28,0.01
2013-1-6,66,60,53,41,34,27,44,38,30,30.40,30.29,14,5,28,0.00
2013-1-7,65,57,48,44,37,33,61,48,34,30.33,30.26,10,5,21,0.00
2013-1-8,66,57,52,43,39,34,59,51,40,30.38,30.29,15,7,30,0.00
2013-1-9,65,56,49,45,40,34,61,55,44,30.34,30.23,25,12,48,0.00
2013-1-10,65,59,54,49,46,43,68,60,48,30.30,30.19,26,8,46,0.00
2013-1-11,67,59,56,52,46,41,68,62,53,30.22,30.14,17,6,28,0.00
2013-1-12,62,57,52,47,44,37,75,61,50,30.22,30.13,19,10,28,0.00
2013-1-13,54,52,48,46,40,34,82,65,49,30.13,30.00,32,15,43,0.03
2013-1-14,57,51,45,39,34,30,74,52,38,30.22,30.06,29,14,41,0.01
2013-1-15,55,51,48,40,37,34,67,59,47,30.22,30.11,30,20,44,0.00
2013-1-16,53,52,50,48,41,36,85,69,56,30.21,30.05,33,19,45,0.04
2013-1-17,60,57,52,51,47,42,90,69,54,30.09,29.97,33,20,45,0.13
2013-1-18,64,59,56,54,52,50,86,77,70,30.06,29.78,27,12,35,0.01
2013-1-19,57,53,47,52,47,38,92,79,62,29.78,29.32,41,16,55,1.00
2013-1-20,54,50,47,47,39,35,84,67,56,29.86,29.47,33,16,46,0.01
2013-1-21,54,51,49,48,41,35,93,68,50,30.03,29.77,32,16,45,0.17
2013-1-22,54,48,45,45,39,34,88,70,57,30.04,29.88,29,10,51,0.13
2013-1-23,52,48,43,42,36,31,85,64,48,30.19,29.94,36,17,51,0.08
2013-1-24,58,55,52,48,45,42,80,68,61,30.16,29.96,30,17,43,0.01
2013-1-25,59,54,50,51,45,41,82,71,61,30.06,29.99,22,14,33,0.00
2013-1-26,62,59,55,50,47,38,80,66,43,30.16,30.03,34,20,44,0.00
2013-1-27,66,58,50,51,42,37,77,56,39,30.19,30.10,22,9,35,0.00
2013-1-28,66,57,47,52,38,24,81,53,24,30.37,30.18,32,11,45,0.00
2013-1-29,67,53,44,43,38,28,83,59,32,30.38,30.32,6,3,9,0.00
2013-1-30,74,57,45,48,37,30,84,50,24,30.42,30.36,12,4,18,0.00
2013-1-31,72,60,51,45,36,27,66,43,32,30.42,30.39,8,3,12,0.00
2013-2-1,73,58,48,47,39,32,70,52,30,30.40,30.11,27,9,38,0.00
2013-2-2,59,56,51,49,40,31,75,55,35,30.22,30.01,36,20,45,0.00
2013-2-3,57,51,46,39,31,22,68,47,26,30.37,30.22,24,10,41,0.00
2013-2-4,58,48,41,41,36,29,84,64,48,30.43,30.36,9,3,17,0.00
2013-2-5,62,51,41,47,41,37,89,71,45,30.37,30.16,26,7,35,0.00
2013-2-6,59,55,51,45,37,32,62,49,39,30.16,30.06,30,20,45,0.00
2013-2-7,58,50,45,34,29,23,63,46,26,30.26,30.15,22,10,35,0.00
2013-2-8,59,51,43,35,29,24,52,43,33,30.20,29.99,23,9,37,0.00
2013-2-9,59,50,44,39,31,25,72,49,28,30.26,30.06,24,10,38,0.00
2013-2-10,60,50,41,41,33,28,72,54,35,30.27,30.01,21,5,35,0.00
2013-2-11,54,50,46,45,38,33,75,63,47,30.04,29.89,37,22,52,0.03
2013-2-12,53,48,45,35,33,31,68,56,44,30.16,30.02,26,12,39,0.03
2013-2-13,65,56,50,43,38,31,64,52,44,30.20,30.09,21,13,37,0.00
2013-2-14,69,59,51,46,42,40,69,55,41,30.22,30.14,8,3,14,0.00
2013-2-15,68,55,46,45,42,39,81,64,43,30.16,30.09,13,4,16,0.00
2013-2-16,63,53,46,48,44,40,91,74,54,30.14,30.05,12,3,17,0.00
2013-2-17,61,52,44,46,43,40,90,74,54,30.06,29.93,20,6,26,0.00
2013-2-18,64,56,51,52,47,43,88,74,62,29.95,29.81,16,4,22,0.03
2013-2-19,53,51,50,51,49,48,95,92,88,29.86,29.79,10,1,20,0.50
2013-2-20,59,52,46,49,46,42,95,78,63,30.02,29.83,18,8,24,0.76
2013-2-21,62,55,49,52,45,38,88,69,60,30.03,29.92,21,7,28,0.01
2013-2-22,56,54,50,54,50,43,94,88,77,29.92,29.72,21,4,35,0.51
2013-2-23,55,50,46,45,40,36,90,69,50,30.01,29.65,28,13,40,0.27
2013-2-24,54,50,46,36,33,30,66,53,42,30.09,30.01,25,15,38,0.01
2013-2-25,56,49,44,33,28,23,60,45,28,30.12,30.05,17,8,30,0.00
2013-2-26,54,46,40,36,30,24,75,54,42,30.14,30.06,10,3,20,0.00
2013-2-27,53,45,37,41,35,30,81,70,52,30.09,29.88,14,5,25,0.00
2013-2-28,49,44,39,44,38,33,93,81,56,29.88,29.70,29,7,39,0.92
2013-3-1,54,49,43,38,36,32,78,62,45,30.02,29.82,28,15,39,0.01
2013-3-2,56,49,41,43,38,32,81,66,51,30.03,29.93,16,5,28,0.00
2013-3-3,59,52,48,50,45,40,90,78,64,29.98,29.77,6,1,16,0.00
2013-3-4,64,54,49,52,47,41,92,80,43,29.77,29.37,23,4,43,0.03
2013-3-5,59,54,52,53,50,48,94,87,74,29.49,29.39,10,2,18,0.94
2013-3-6,65,57,53,57,52,49,95,85,62,29.82,29.45,21,6,28,0.71
2013-3-7,61,57,54,59,54,50,95,92,82,29.88,29.77,13,3,23,0.96
2013-3-8,65,58,51,56,52,49,93,82,66,29.93,29.85,13,4,21,0.02
2013-3-9,59,56,50,56,53,44,95,91,81,29.91,29.83,13,4,18,0.26
2013-3-10,59,53,48,51,46,42,89,80,67,29.94,29.84,12,4,17,0.01
2013-3-11,61,54,49,48,45,42,86,71,57,29.97,29.87,26,11,35,0.03
2013-3-12,54,52,49,52,48,43,94,87,68,29.93,29.61,16,5,22,0.15
2013-3-13,54,50,47,47,35,27,81,58,42,29.94,29.63,37,21,48,0.02
2013-3-14,58,50,44,31,27,21,52,41,28,30.08,29.93,24,12,43,0.00
2013-3-15,59,52,46,40,34,27,74,50,38,30.10,30.02,13,3,22,0.00
2013-3-16,56,49,46,45,40,37,88,72,50,30.04,29.84,8,2,12,0.07
2013-3-17,61,54,47,55,49,41,91,82,73,29.85,29.61,12,4,15,0.09
2013-3-18,69,59,51,53,41,30,92,56,27,29.80,29.66,18,8,25,0.07
2013-3-19,56,53,47,53,45,30,94,77,48,29.78,29.63,8,4,13,0.72
2013-3-20,60,55,52,53,45,39,95,71,47,30.11,29.67,29,15,43,0.05
2013-3-21,65,55,46,51,43,39,85,66,44,30.10,29.96,7,3,18,0.01
2013-3-22,64,53,45,51,46,39,91,78,52,29.96,29.83,21,3,30,0.03
2013-3-23,59,50,46,48,46,42,94,86,60,29.84,29.63,13,4,26,0.60
2013-3-24,59,53,47,50,46,42,94,77,66,29.95,29.67,21,11,30,0.35
2013-3-25,61,56,51,50,46,40,79,70,60,30.04,29.93,21,12,33,0.01
2013-3-26,66,60,55,53,50,47,82,71,54,29.96,29.78,23,11,33,0.00
2013-3-27,68,58,52,55,51,47,91,78,53,29.80,29.72,20,4,26,0.09
2013-3-28,67,59,53,52,51,49,92,75,54,30.05,29.75,23,10,31,0.07
2013-3-29,70,62,57,54,50,45,74,64,49,30.07,29.98,26,12,36,0.01
2013-3-30,68,62,57,56,52,48,94,72,51,30.05,29.96,24,10,33,0.58
2013-3-31,63,60,57,57,51,-100,92,77,61,29.99,29.74,19,5,26,0.11
2013-4-1,64,58,53,55,48,43,93,71,50,29.90,29.69,26,10,35,0.19
2013-4-2,65,58,48,48,46,42,87,65,50,29.98,29.83,18,8,28,0.05
2013-4-3,62,54,49,53,48,43,91,80,63,29.84,29.65,13,3,20,0.09
2013-4-4,61,53,48,51,48,44,96,82,61,29.72,29.61,9,2,15,0.15
2013-4-5,60,53,49,53,48,39,94,82,56,29.91,29.66,21,5,37,0.32
2013-4-6,57,53,47,40,38,36,70,58,47,30.13,29.91,27,20,36,0.01
2013-4-7,62,55,48,44,39,34,74,56,44,30.13,29.98,21,5,28,0.00
2013-4-8,71,61,51,51,43,39,74,54,34,30.00,29.91,20,9,26,0.00
2013-4-9,71,62,57,50,45,37,76,55,29,30.06,29.93,24,12,35,0.00
2013-4-10,73,65,60,56,50,47,67,59,47,30.12,30.04,22,9,35,0.00
2013-4-11,74,64,55,57,52,48,83,65,48,30.10,29.98,23,7,35,0.00
2013-4-12,73,65,59,52,48,43,73,54,40,30.07,29.99,20,9,35,0.00
2013-4-13,74,62,53,57,51,47,84,69,51,30.16,30.06,9,3,17,0.00
2013-4-14,72,61,53,54,51,46,88,71,51,30.21,30.09,10,4,16,0.00
2013-4-15,69,61,53,58,54,50,92,80,67,30.24,30.14,11,2,15,0.00
2013-4-16,71,62,56,60,56,52,92,83,67,30.20,30.11,9,3,13,0.00
2013-4-17,69,60,56,59,56,53,94,88,70,30.21,30.14,10,2,15,0.00
2013-4-18,70,60,54,60,56,52,95,85,70,30.19,30.08,10,3,14,0.01
2013-4-19,68,61,56,60,56,53,94,86,73,30.14,30.02,9,3,14,0.01
2013-4-20,61,58,56,56,55,53,94,90,80,30.19,30.10,12,2,20,0.07
2013-4-21,66,59,55,58,54,51,92,83,68,30.15,30.01,8,2,15,0.01
2013-4-22,65,57,52,55,52,49,93,83,67,30.06,29.96,11,2,18,0.00
2013-4-23,63,57,51,54,50,47,93,80,63,30.17,30.03,13,3,23,0.01
2013-4-24,65,58,50,51,48,45,91,73,51,30.17,30.11,10,3,18,0.00
2013-4-25,71,60,49,53,48,41,89,65,49,30.14,29.91,16,6,29,0.00
2013-4-26,68,62,56,57,54,48,89,73,60,29.98,29.91,10,4,17,0.00
2013-4-27,74,64,57,59,53,46,90,69,46,29.92,29.67,20,7,30,0.00
2013-4-28,59,54,46,49,43,37,86,67,49,29.76,29.60,26,11,39,0.32
2013-4-29,54,48,45,43,40,37,86,72,54,29.85,29.74,21,6,29,0.10
2013-4-30,56,48,43,49,44,40,94,86,73,30.00,29.81,12,3,17,0.60
2013-5-1,65,54,45,50,45,41,87,73,45,30.05,29.97,12,4,20,0.01
2013-5-2,69,56,47,51,48,45,93,76,52,30.07,30.00,14,3,24,0.00
2013-5-3,66,58,52,56,51,47,88,76,55,30.11,30.01,11,3,18,0.00
2013-5-4,68,59,51,55,51,47,90,77,55,30.19,30.08,12,3,20,0.00
2013-5-5,72,63,54,58,53,49,89,72,56,30.19,30.10,9,3,16,0.00
2013-5-6,77,66,56,55,51,42,88,63,38,30.19,30.11,13,4,17,0.00
2013-5-7,81,69,60,56,52,45,80,56,36,30.16,30.05,10,2,15,0.00
2013-5-8,83,72,62,56,51,45,78,52,29,30.09,29.97,11,3,16,0.00
2013-5-9,90,77,64,59,53,47,67,45,32,30.03,29.97,11,4,17,0.00
2013-5-10,84,76,67,58,50,-100,70,44,33,30.09,29.98,12,4,16,0.00
2013-5-11,77,66,59,62,59,55,90,78,56,30.11,30.03,11,2,20,0.00
2013-5-12,68,63,62,61,58,-100,92,86,73,30.16,30.08,6,2,15,0.00
2013-5-13,69,63,59,62,58,56,95,86,70,30.16,30.03,8,2,16,0.02
2013-5-14,78,66,60,60,55,48,92,71,46,30.08,29.78,13,4,20,0.01
2013-5-15,69,63,57,56,50,42,85,66,39,29.78,29.62,26,8,35,0.00
2013-5-16,69,59,56,49,32,-100,71,56,34,29.76,29.60,23,13,32,0.00
2013-5-17,64,55,51,53,45,-100,92,79,65,29.76,29.66,20,5,28,0.08
2013-5-18,66,56,49,46,42,39,78,61,39,30.11,29.75,25,14,36,0.03
2013-5-19,65,57,50,46,43,40,77,60,40,30.12,30.06,20,8,29,0.00
2013-5-20,68,59,52,50,44,40,88,59,40,30.10,29.97,14,6,25,0.18
2013-5-21,58,53,51,53,50,49,94,88,80,30.12,29.97,14,3,23,0.20
2013-5-22,74,64,51,52,48,44,92,60,42,30.13,30.00,18,9,28,0.02
2013-5-23,81,73,63,55,51,47,64,47,34,30.05,29.94,20,10,28,0.00
2013-5-24,82,73,67,57,51,45,65,47,37,30.01,29.94,13,7,21,0.00
2013-5-25,72,64,57,60,57,54,92,77,59,30.08,29.98,11,3,17,0.00
2013-5-26,69,62,57,59,56,53,91,82,69,30.06,29.95,11,3,17,0.00
2013-5-27,69,63,56,58,53,45,90,72,43,29.98,29.86,18,5,25,0.00
2013-5-28,70,65,60,52,49,45,67,57,45,29.95,29.86,26,16,35,0.00
2013-5-29,71,65,59,52,46,40,70,51,35,30.00,29.93,32,19,43,0.00
2013-5-30,75,67,60,51,48,44,66,51,37,30.05,29.96,25,11,35,0.00
2013-5-31,80,68,54,51,46,37,83,49,27,30.05,29.95,23,8,33,0.00
2013-6-1,75,69,59,49,43,38,66,40,30,30.09,30.03,14,5,23,0.00
2013-6-2,75,65,54,50,47,42,77,54,37,30.09,30.00,9,3,18,0.00
2013-6-3,76,66,56,50,46,41,75,51,36,30.09,29.98,10,3,17,0.00
2013-6-4,78,67,56,53,48,43,70,53,36,30.04,29.89,10,3,17,0.00
2013-6-5,79,71,64,55,51,44,72,50,38,30.02,29.85,12,4,22,0.00
2013-6-6,75,67,60,57,52,48,75,59,44,30.07,29.98,13,4,21,0.00
2013-6-7,74,65,54,54,51,45,86,62,41,30.07,29.99,18,6,26,0.00
2013-6-8,72,64,57,51,47,44,69,54,39,30.09,29.99,21,14,32,0.00
2013-6-9,72,66,61,52,50,47,68,55,46,30.07,29.99,22,16,31,0.00
2013-6-10,78,71,64,57,53,49,66,54,40,30.09,30.02,20,9,26,0.00
2013-6-11,83,74,65,57,54,51,63,50,39,30.13,30.08,16,5,24,0.00
2013-6-12,88,76,64,59,54,50,74,48,29,30.15,30.09,9,2,15,0.00
2013-6-13,89,77,67,57,51,46,65,42,27,30.14,30.02,10,3,17,0.00
2013-6-14,89,78,67,58,55,49,65,46,34,30.07,30.00,9,3,21,0.00
2013-6-15,87,76,68,57,54,51,67,47,34,30.07,29.95,10,4,20,0.00
2013-6-16,85,75,68,62,58,53,74,57,41,30.02,29.85,10,4,15,0.00
2013-6-17,85,73,65,62,56,46,83,58,27,29.93,29.82,24,9,30,0.00
2013-6-18,74,66,60,53,48,44,63,52,36,29.99,29.88,25,17,35,0.00
2013-6-19,82,71,62,54,51,48,68,51,33,30.01,29.95,17,9,23,0.00